createdAt,value
2022-08-22T00:01:08.588Z,104.00
2022-08-22T00:02:49.988Z,103.38
2022-08-22T00:03:10.963Z,100.56
2022-08-22T00:04:23.228Z,104.00
2022-08-22T00:07:47.374Z,104.00
2022-08-22T00:11:00.178Z,104.00
2022-08-22T00:14:20.565Z,104.00
2022-08-22T00:17:37.358Z,104.00
2022-08-22T00:20:49.401Z,104.00
2022-08-22T00:24:16.772Z,104.00
2022-08-22T00:27:29.149Z,104.00
2022-08-22T00:30:48.073Z,104.00
2022-08-22T00:34:00.568Z,104.00
2022-08-22T00:37:13.406Z,103.96
2022-08-22T00:40:38.442Z,104.00
2022-08-22T00:44:11.508Z,103.89
2022-08-22T00:47:45.003Z,103.96
2022-08-22T00:51:13.030Z,103.51
2022-08-22T00:54:30.966Z,102.95
2022-08-22T00:57:55.999Z,102.53
2022-08-22T01:01:09.903Z,102.82
2022-08-22T01:04:36.798Z,102.68
2022-08-22T01:08:00.530Z,102.85
2022-08-22T01:11:25.566Z,102.69
2022-08-22T01:14:48.020Z,103.02
2022-08-22T01:18:20.022Z,102.74
2022-08-22T01:22:03.379Z,102.51
2022-08-22T01:25:42.994Z,102.44
2022-08-22T01:29:33.838Z,102.85
2022-08-22T01:33:26.975Z,103.01
2022-08-22T01:37:11.994Z,102.82
2022-08-22T01:40:53.450Z,103.18
2022-08-22T01:44:16.339Z,102.64
2022-08-22T01:47:28.556Z,102.75
2022-08-22T01:50:49.161Z,103.11
2022-08-22T01:54:04.885Z,102.61
2022-08-22T01:57:12.377Z,102.60
2022-08-22T02:00:34.695Z,102.79
2022-08-22T02:03:54.276Z,103.16
2022-08-22T02:07:06.863Z,103.19
2022-08-22T02:10:23.116Z,103.18
2022-08-22T02:13:54.455Z,102.98
2022-08-22T02:17:17.328Z,102.94
2022-08-22T02:20:27.461Z,102.83
2022-08-22T02:23:50.093Z,102.85
2022-08-22T02:27:16.250Z,103.05
2022-08-22T02:30:25.283Z,102.96
2022-08-22T02:33:38.145Z,103.11
2022-08-22T02:36:50.869Z,102.96
2022-08-22T02:40:09.543Z,102.99
2022-08-22T02:43:24.580Z,103.18
2022-08-22T02:46:42.716Z,102.92
2022-08-22T02:50:00.720Z,103.01
2022-08-22T02:53:16.819Z,102.81
2022-08-22T02:56:28.022Z,102.82
2022-08-22T02:59:40.424Z,103.08
2022-08-22T03:03:04.212Z,103.21
2022-08-22T03:06:36.806Z,103.19
2022-08-22T03:09:49.366Z,103.02
2022-08-22T03:13:06.726Z,102.90
2022-08-22T03:16:21.713Z,103.11
2022-08-22T03:19:34.829Z,103.51
2022-08-22T03:22:49.137Z,103.64
2022-08-22T03:26:07.983Z,103.59
2022-08-22T03:29:20.787Z,103.36
2022-08-22T03:32:54.716Z,103.15
2022-08-22T03:36:07.484Z,103.01
2022-08-22T03:39:21.076Z,103.18
2022-08-22T03:42:56.496Z,103.20
2022-08-22T03:46:39.991Z,103.31
2022-08-22T03:50:12.237Z,103.41
2022-08-22T03:53:39.161Z,103.73
2022-08-22T03:57:21.886Z,103.80
2022-08-22T04:01:09.985Z,103.91
2022-08-22T04:04:57.981Z,104.00
2022-08-22T04:08:46.837Z,104.00
2022-08-22T04:12:14.598Z,104.00
2022-08-22T04:15:57.095Z,104.00
2022-08-22T04:19:28.300Z,104.00
2022-08-22T04:23:03.405Z,104.00
2022-08-22T04:26:16.490Z,104.00
2022-08-22T04:29:28.422Z,104.00
2022-08-22T04:32:40.717Z,103.83
2022-08-22T04:36:03.268Z,103.92
2022-08-22T04:39:18.650Z,103.85
2022-08-22T04:42:34.901Z,103.97
2022-08-22T04:45:44.639Z,103.82
2022-08-22T04:49:00.931Z,103.64
2022-08-22T04:52:17.457Z,103.22
2022-08-22T04:55:36.324Z,103.04
2022-08-22T04:58:50.794Z,102.76
2022-08-22T05:02:00.630Z,102.60
2022-08-22T05:05:14.278Z,102.39
2022-08-22T05:08:27.474Z,102.15
2022-08-22T05:11:36.471Z,102.08
2022-08-22T05:14:50.481Z,101.98
2022-08-22T05:18:09.631Z,101.79
2022-08-22T05:21:18.280Z,101.94
2022-08-22T05:24:28.093Z,101.73
2022-08-22T05:27:40.287Z,101.39
2022-08-22T05:30:51.631Z,101.58
2022-08-22T05:34:04.262Z,101.62
2022-08-22T05:37:15.889Z,101.38
2022-08-22T05:40:26.523Z,100.72
2022-08-22T05:43:32.532Z,100.75
2022-08-22T05:46:46.991Z,100.64
2022-08-22T05:50:01.292Z,100.52
2022-08-22T05:53:14.703Z,100.30
2022-08-22T05:56:30.416Z,99.81
2022-08-22T05:59:42.113Z,99.81
2022-08-22T06:03:03.373Z,99.40
2022-08-22T06:06:18.025Z,99.41
2022-08-22T06:09:35.282Z,99.23
2022-08-22T06:12:47.895Z,99.47
2022-08-22T06:15:58.675Z,99.46
2022-08-22T06:19:19.388Z,99.05
2022-08-22T06:22:30.933Z,99.00
2022-08-22T06:25:41.934Z,98.68
2022-08-22T06:28:54.472Z,98.37
2022-08-22T06:32:06.742Z,98.54
2022-08-22T06:35:22.682Z,98.41
2022-08-22T06:38:33.756Z,98.75
2022-08-22T06:41:42.629Z,98.39
2022-08-22T06:44:59.171Z,98.59
2022-08-22T06:48:19.135Z,98.05
2022-08-22T06:51:31.213Z,98.36
2022-08-22T06:54:40.622Z,98.44
2022-08-22T06:57:53.840Z,98.30
2022-08-22T07:01:11.924Z,98.27
2022-08-22T07:04:20.196Z,101.02
2022-08-22T07:07:31.935Z,101.62
2022-08-22T07:10:39.960Z,100.45
2022-08-22T07:13:51.824Z,100.69
2022-08-22T07:17:01.189Z,100.81
2022-08-22T07:20:22.744Z,100.90
2022-08-22T07:23:37.372Z,101.22
2022-08-22T07:26:54.655Z,101.61
2022-08-22T07:30:11.422Z,101.94
2022-08-22T07:33:44.129Z,101.75
2022-08-22T07:36:57.203Z,102.01
2022-08-22T07:40:19.157Z,101.92
2022-08-22T07:43:32.183Z,102.47
2022-08-22T07:46:41.575Z,101.93
2022-08-22T07:49:56.333Z,101.37
2022-08-22T07:53:09.572Z,101.08
2022-08-22T07:56:26.006Z,99.50
2022-08-22T07:59:34.315Z,98.79
2022-08-22T08:02:43.316Z,98.76
2022-08-22T08:05:49.758Z,99.40
2022-08-22T08:08:58.545Z,97.41
2022-08-22T08:12:08.939Z,96.71
2022-08-22T08:15:22.801Z,96.17
2022-08-22T08:18:34.130Z,96.41
2022-08-22T08:21:44.001Z,96.75
2022-08-22T08:24:51.853Z,97.25
2022-08-22T08:28:18.586Z,97.85
2022-08-22T08:31:32.121Z,97.43
2022-08-22T08:34:41.603Z,97.87
2022-08-22T08:37:53.001Z,96.94
2022-08-22T08:41:34.944Z,96.56
2022-08-22T08:45:06.702Z,96.98
2022-08-22T08:48:42.151Z,97.10
2022-08-22T08:52:14.878Z,97.19
2022-08-22T08:55:27.793Z,97.58
2022-08-22T08:58:44.001Z,97.53
2022-08-22T09:02:09.633Z,97.54
2022-08-22T09:05:51.310Z,97.86
2022-08-22T09:09:21.356Z,97.59
2022-08-22T09:13:00.104Z,97.37
2022-08-22T09:16:33.470Z,97.55
2022-08-22T09:20:22.218Z,97.93
2022-08-22T09:24:18.652Z,98.41
2022-08-22T09:27:35.723Z,96.58
2022-08-22T09:30:56.291Z,96.75
2022-08-22T09:34:11.588Z,97.04
2022-08-22T09:37:29.241Z,97.64
2022-08-22T09:40:43.515Z,98.00
2022-08-22T09:43:55.943Z,97.62
2022-08-22T09:47:13.734Z,97.54
2022-08-22T09:50:31.003Z,97.66
2022-08-22T09:54:01.050Z,97.57
2022-08-22T09:57:22.500Z,97.65
2022-08-22T10:00:35.857Z,96.84
2022-08-22T10:04:19.280Z,96.47
2022-08-22T10:07:46.042Z,96.12
2022-08-22T10:11:17.685Z,96.93
2022-08-22T10:14:28.216Z,95.70
2022-08-22T10:17:41.068Z,95.97
2022-08-22T10:20:59.260Z,96.22
2022-08-22T10:24:25.822Z,96.14
2022-08-22T10:27:50.301Z,96.03
2022-08-22T10:31:11.290Z,96.01
2022-08-22T10:34:23.746Z,95.87
2022-08-22T10:37:39.625Z,94.62
2022-08-22T10:40:57.805Z,93.79
2022-08-22T10:44:18.653Z,94.03
2022-08-22T10:47:33.343Z,95.05
2022-08-22T10:50:45.925Z,94.18
2022-08-22T10:54:03.332Z,93.63
2022-08-22T10:57:32.525Z,94.52
2022-08-22T11:00:50.443Z,93.91
2022-08-22T11:04:08.223Z,94.61
2022-08-22T11:07:44.485Z,93.92
2022-08-22T11:11:11.735Z,93.76
2022-08-22T11:14:34.677Z,94.00
2022-08-22T11:18:26.449Z,93.51
2022-08-22T11:21:51.018Z,92.88
2022-08-22T11:25:38.530Z,92.41
2022-08-22T11:29:13.710Z,93.07
2022-08-22T11:32:34.716Z,92.61
2022-08-22T11:35:48.000Z,93.62
2022-08-22T11:39:17.903Z,93.66
2022-08-22T11:42:35.205Z,94.19
2022-08-22T11:45:57.070Z,94.49
2022-08-22T11:49:16.605Z,95.06
2022-08-22T11:52:51.705Z,94.43
2022-08-22T11:56:11.611Z,95.75
2022-08-22T11:59:26.299Z,93.58
2022-08-22T12:02:47.445Z,92.77
2022-08-22T12:05:58.801Z,91.68
2022-08-22T12:09:42.565Z,91.42
2022-08-22T12:13:01.440Z,91.08
2022-08-22T12:16:15.901Z,92.64
2022-08-22T12:19:32.832Z,91.84
2022-08-22T12:22:52.658Z,92.79
2022-08-22T12:26:14.431Z,92.73
2022-08-22T12:29:39.909Z,93.36
2022-08-22T12:33:21.956Z,91.87
2022-08-22T12:36:49.828Z,91.91
2022-08-22T12:40:26.383Z,90.12
2022-08-22T12:43:51.402Z,87.55
2022-08-22T12:47:17.460Z,86.27
2022-08-22T12:50:34.755Z,86.16
2022-08-22T12:54:15.230Z,84.38
2022-08-22T12:57:34.521Z,84.00
2022-08-22T13:00:48.443Z,83.64
2022-08-22T13:04:03.998Z,83.98
2022-08-22T13:07:22.713Z,84.00
2022-08-22T13:10:45.550Z,84.65
2022-08-22T13:13:56.235Z,83.71
2022-08-22T13:17:09.763Z,84.70
2022-08-22T13:20:36.115Z,85.04
2022-08-22T13:23:51.389Z,84.83
2022-08-22T13:27:08.374Z,85.32
2022-08-22T13:30:23.682Z,85.54
2022-08-22T13:33:37.785Z,86.48
2022-08-22T13:36:52.154Z,86.25
2022-08-22T13:40:04.784Z,86.00
2022-08-22T13:43:14.501Z,87.57
2022-08-22T13:46:30.412Z,83.62
2022-08-22T13:49:48.261Z,83.76
2022-08-22T13:53:01.330Z,83.35
2022-08-22T13:56:15.636Z,81.49
2022-08-22T13:59:50.265Z,81.55
2022-08-22T14:03:05.375Z,81.95
2022-08-22T14:06:37.767Z,81.08
2022-08-22T14:09:56.099Z,80.81
2022-08-22T14:13:33.910Z,80.71
2022-08-22T14:16:50.956Z,82.14
2022-08-22T14:20:04.179Z,83.07
2022-08-22T14:23:27.014Z,82.67
2022-08-22T14:26:47.744Z,82.84
2022-08-22T14:29:57.741Z,83.43
2022-08-22T14:33:16.653Z,85.25
2022-08-22T14:36:29.061Z,85.43
2022-08-22T14:39:43.988Z,86.23
2022-08-22T14:42:54.405Z,86.30
2022-08-22T14:46:07.316Z,86.99
2022-08-22T14:49:29.716Z,87.82
2022-08-22T14:52:41.601Z,87.97
2022-08-22T14:55:59.932Z,87.49
2022-08-22T14:59:15.863Z,87.58
2022-08-22T15:02:31.819Z,88.20
2022-08-22T15:05:49.096Z,88.36
2022-08-22T15:08:57.212Z,87.01
2022-08-22T15:12:25.165Z,86.28
2022-08-22T15:15:49.506Z,86.32
2022-08-22T15:19:28.444Z,86.47
2022-08-22T15:22:35.473Z,86.13
2022-08-22T15:25:46.995Z,86.28
2022-08-22T15:29:07.361Z,86.67
2022-08-22T15:32:14.250Z,86.54
2022-08-22T15:35:32.347Z,87.17
2022-08-22T15:38:42.074Z,88.22
2022-08-22T15:41:54.067Z,87.99
2022-08-22T15:45:07.093Z,88.37
2022-08-22T15:48:31.358Z,88.36
2022-08-22T15:51:44.266Z,89.35
2022-08-22T15:55:22.294Z,87.61
2022-08-22T15:58:29.612Z,88.22
2022-08-22T16:01:49.820Z,90.14
2022-08-22T16:05:06.962Z,91.62
2022-08-22T16:08:15.061Z,93.44
2022-08-22T16:11:33.698Z,94.53
2022-08-22T16:14:53.232Z,96.13
2022-08-22T16:18:04.068Z,96.54
2022-08-22T16:21:12.494Z,97.23
2022-08-22T16:24:33.912Z,98.28
2022-08-22T16:27:58.568Z,98.65
2022-08-22T16:31:20.765Z,99.33
2022-08-22T16:34:42.327Z,99.68
2022-08-22T16:37:53.044Z,100.91
2022-08-22T16:40:59.912Z,100.67
2022-08-22T16:44:45.458Z,100.43
2022-08-22T16:47:58.189Z,100.83
2022-08-22T16:51:14.623Z,100.78
2022-08-22T16:54:45.686Z,100.99
2022-08-22T16:58:06.961Z,100.48
2022-08-22T17:01:20.958Z,100.86
2022-08-22T17:04:36.684Z,100.67
2022-08-22T17:08:00.088Z,100.36
2022-08-22T17:11:26.401Z,99.70
2022-08-22T17:14:43.925Z,99.41
2022-08-22T17:18:11.653Z,99.17
2022-08-22T17:21:26.186Z,98.60
2022-08-22T17:24:45.258Z,98.27
2022-08-22T17:27:58.735Z,97.55
2022-08-22T17:31:18.579Z,97.32
2022-08-22T17:34:35.827Z,97.65
2022-08-22T17:37:51.957Z,97.09
2022-08-22T17:41:10.016Z,97.28
2022-08-22T17:44:27.929Z,97.41
2022-08-22T17:47:42.451Z,96.94
2022-08-22T17:50:55.326Z,97.47
2022-08-22T17:54:07.387Z,96.70
2022-08-22T17:57:29.286Z,96.99
2022-08-22T18:00:38.310Z,96.95
2022-08-22T18:03:53.975Z,97.30
2022-08-22T18:07:08.981Z,97.00
2022-08-22T18:10:25.087Z,97.25
2022-08-22T18:13:45.895Z,97.21
2022-08-22T18:16:56.699Z,97.48
2022-08-22T18:20:10.338Z,97.24
2022-08-22T18:23:35.950Z,97.57
2022-08-22T18:26:54.332Z,97.37
2022-08-22T18:30:09.145Z,97.34
2022-08-22T18:33:24.044Z,97.05
2022-08-22T18:36:35.728Z,97.16
2022-08-22T18:39:52.748Z,97.32
2022-08-22T18:43:15.260Z,96.86
2022-08-22T18:46:53.690Z,97.56
2022-08-22T18:50:24.661Z,97.85
2022-08-22T18:53:40.665Z,97.40
2022-08-22T18:56:54.351Z,97.73
2022-08-22T19:00:11.488Z,97.47
2022-08-22T19:03:36.466Z,97.36
2022-08-22T19:07:00.878Z,97.96
2022-08-22T19:10:37.420Z,97.92
2022-08-22T19:14:00.394Z,98.44
2022-08-22T19:17:37.340Z,98.02
2022-08-22T19:21:00.270Z,98.31
2022-08-22T19:24:14.631Z,99.09
2022-08-22T19:27:31.474Z,98.95
2022-08-22T19:30:45.540Z,98.90
2022-08-22T19:33:53.396Z,99.55
2022-08-22T19:37:33.126Z,100.03
2022-08-22T19:41:03.408Z,100.17
2022-08-22T19:44:14.776Z,100.48
2022-08-22T19:47:32.553Z,100.50
2022-08-22T19:50:40.594Z,101.00
2022-08-22T19:53:59.377Z,100.57
2022-08-22T19:57:19.979Z,100.62
2022-08-22T20:00:30.360Z,101.04
2022-08-22T20:03:48.050Z,100.75
2022-08-22T20:07:04.230Z,100.29
2022-08-22T20:10:34.063Z,100.11
2022-08-22T20:13:44.111Z,100.45
2022-08-22T20:17:10.750Z,100.36
2022-08-22T20:20:58.873Z,100.42
2022-08-22T20:24:10.266Z,99.97
2022-08-22T20:27:20.347Z,100.31
2022-08-22T20:30:35.860Z,100.27
2022-08-22T20:33:46.035Z,99.98
2022-08-22T20:37:09.806Z,99.92
2022-08-22T20:40:56.554Z,100.18
2022-08-22T20:44:12.686Z,99.83
2022-08-22T20:47:26.616Z,99.80
2022-08-22T20:50:45.264Z,99.54
2022-08-22T20:53:55.348Z,100.28
2022-08-22T20:57:04.455Z,99.63
2022-08-22T21:00:14.140Z,99.58
2022-08-22T21:03:41.874Z,99.13
2022-08-22T21:06:47.997Z,99.03
2022-08-22T21:10:21.606Z,99.40
2022-08-22T21:13:30.505Z,99.21
2022-08-22T21:16:37.419Z,99.04
2022-08-22T21:19:46.110Z,98.59
2022-08-22T21:22:53.023Z,98.26
2022-08-22T21:26:05.878Z,98.53
2022-08-22T21:29:26.742Z,96.82
2022-08-22T21:32:44.945Z,96.72
2022-08-22T21:35:58.902Z,96.41
2022-08-22T21:39:08.116Z,97.67
2022-08-22T21:42:24.208Z,97.63
2022-08-22T21:45:33.529Z,97.25
2022-08-22T21:48:44.021Z,97.18
2022-08-22T21:51:53.513Z,97.04
2022-08-22T21:55:19.735Z,97.17
2022-08-22T21:58:35.621Z,97.50
2022-08-22T22:01:43.335Z,97.86
2022-08-22T22:04:52.046Z,97.60
2022-08-22T22:08:03.261Z,98.32
2022-08-22T22:11:14.599Z,97.68
2022-08-22T22:14:22.868Z,97.65
2022-08-22T22:17:28.914Z,97.32
2022-08-22T22:20:36.834Z,97.47
2022-08-22T22:23:45.893Z,98.23
2022-08-22T22:26:52.635Z,98.67
2022-08-22T22:29:58.759Z,99.03
2022-08-22T22:33:07.381Z,99.08
2022-08-22T22:36:18.380Z,99.19
2022-08-22T22:39:28.050Z,98.98
2022-08-22T22:42:34.063Z,99.56
2022-08-22T22:45:41.119Z,99.87
2022-08-22T22:48:47.817Z,99.43
2022-08-22T22:51:54.885Z,99.14
2022-08-22T22:55:06.424Z,99.10
2022-08-22T22:58:15.914Z,99.35
2022-08-22T23:01:29.099Z,99.38
2022-08-22T23:04:38.629Z,99.80
2022-08-22T23:07:44.991Z,99.81
2022-08-22T23:10:54.826Z,99.87
2022-08-22T23:14:01.064Z,99.79
2022-08-22T23:17:08.650Z,99.55
2022-08-22T23:20:15.003Z,99.72
2022-08-22T23:23:21.731Z,99.65
2022-08-22T23:26:30.828Z,99.57
2022-08-22T23:29:41.308Z,99.77
2022-08-22T23:32:47.823Z,99.76
2022-08-22T23:35:59.777Z,99.63
2022-08-22T23:39:09.222Z,99.43
2022-08-22T23:42:20.147Z,99.61
2022-08-22T23:45:26.009Z,99.82
2022-08-22T23:48:32.764Z,99.74
2022-08-22T23:51:39.413Z,100.15
2022-08-22T23:54:46.297Z,100.05
2022-08-22T23:57:57.647Z,99.89
